createdAt,value
2018-05-01T08:32:31.297Z,13.60
2018-05-01T08:34:58.875Z,13.90
2018-05-01T08:37:26.539Z,13.80
2018-05-01T08:39:54.160Z,13.50
2018-05-01T08:42:21.742Z,13.10
2018-05-01T08:44:49.334Z,12.40
2018-05-01T08:47:16.988Z,12.40
2018-05-01T08:49:44.618Z,12.90
2018-05-01T08:52:12.216Z,13.20
2018-05-01T08:54:39.853Z,12.90
2018-05-01T08:57:07.452Z,13.40
2018-05-01T08:59:35.063Z,14.20
2018-05-01T09:02:02.689Z,14.10
2018-05-01T09:04:30.293Z,14.20
2018-05-01T09:06:57.886Z,13.60
2018-05-01T09:09:25.553Z,13.30
2018-05-01T09:11:53.138Z,13.20
2018-05-01T09:14:20.768Z,14.20
2018-05-01T09:16:48.352Z,14.80
2018-05-01T09:19:15.951Z,14.40
2018-05-01T09:21:43.552Z,14.40
2018-05-01T09:24:11.919Z,15.00
2018-05-01T09:26:39.504Z,15.00
2018-05-01T09:29:07.875Z,14.80
2018-05-01T09:31:35.532Z,14.80
2018-05-01T09:34:03.131Z,14.00
2018-05-01T09:36:30.767Z,13.90
2018-05-01T09:38:58.374Z,14.00
2018-05-01T09:41:25.994Z,13.60
2018-05-01T09:43:53.604Z,13.80
2018-05-01T09:46:21.197Z,13.70
2018-05-01T09:48:48.828Z,14.30
2018-05-01T09:51:16.437Z,14.00
2018-05-01T09:53:44.556Z,14.30
2018-05-01T09:56:13.437Z,15.20
2018-05-01T09:58:41.545Z,15.10
2018-05-01T10:01:10.399Z,15.40
2018-05-01T10:03:38.493Z,15.40
2018-05-01T10:06:06.605Z,14.80
2018-05-01T10:08:35.608Z,15.90
2018-05-01T10:11:03.672Z,16.00
2018-05-01T10:13:31.832Z,15.80
2018-05-01T10:15:59.921Z,16.80
2018-05-01T10:18:28.023Z,17.00
2018-05-01T10:20:56.113Z,16.10
2018-05-01T10:23:24.208Z,16.90
2018-05-01T10:25:53.077Z,15.60
2018-05-01T10:28:21.158Z,15.60
2018-05-01T10:30:49.268Z,14.50
2018-05-01T10:33:17.351Z,14.50
2018-05-01T10:35:45.462Z,14.70
2018-05-01T10:38:14.304Z,14.70
2018-05-01T10:40:42.391Z,14.70
2018-05-01T10:43:10.494Z,14.90
2018-05-01T10:45:38.592Z,15.30
2018-05-01T10:48:06.684Z,15.40
2018-05-01T10:50:34.787Z,15.20
2018-05-01T10:53:03.662Z,14.00
2018-05-01T10:55:32.532Z,14.40
2018-05-01T10:58:00.617Z,14.40
2018-05-01T11:00:28.757Z,15.10
2018-05-01T11:02:56.811Z,15.30
2018-05-01T11:05:24.964Z,15.50
2018-05-01T11:07:53.050Z,15.20
2018-05-01T11:10:21.157Z,15.30
2018-05-01T11:12:49.257Z,15.20
2018-05-01T11:15:17.354Z,15.40
2018-05-01T11:17:45.437Z,15.70
2018-05-01T11:20:13.509Z,15.70
2018-05-01T11:22:41.612Z,15.40
2018-05-01T11:25:09.708Z,15.10
2018-05-01T11:27:38.577Z,16.10
2018-05-01T11:30:06.681Z,16.10
2018-05-01T11:32:34.762Z,16.70
2018-05-01T11:35:02.986Z,17.60
2018-05-01T11:37:31.795Z,19.40
2018-05-01T11:39:59.885Z,19.30
2018-05-01T11:42:28.070Z,19.90
2018-05-01T11:44:56.116Z,18.70
2018-05-01T11:47:24.168Z,17.00
2018-05-01T11:49:52.263Z,16.80
2018-05-01T11:52:20.360Z,15.90
2018-05-01T11:54:48.446Z,15.60
2018-05-01T11:57:16.599Z,15.90
2018-05-01T11:59:44.684Z,16.00
2018-05-01T12:02:12.787Z,15.90
2018-05-01T12:04:40.899Z,16.40
2018-05-01T12:07:09.010Z,16.80
2018-05-01T12:09:37.532Z,16.40
2018-05-01T12:12:05.649Z,16.40
2018-05-01T12:14:33.802Z,17.00
2018-05-01T12:17:01.887Z,16.70
2018-05-01T12:19:29.971Z,16.60
2018-05-01T12:21:58.067Z,16.30
2018-05-01T12:24:26.218Z,16.40
2018-05-01T12:26:54.319Z,15.70
2018-05-01T12:29:22.431Z,15.70
2018-05-01T12:31:50.540Z,15.10
2018-05-01T12:34:18.630Z,15.90
2018-05-01T12:36:47.518Z,17.30
2018-05-01T12:39:15.625Z,17.30
2018-05-01T12:41:44.489Z,17.60
2018-05-01T12:44:12.613Z,17.60
2018-05-01T12:46:41.491Z,16.20
2018-05-01T12:49:09.564Z,16.10
2018-05-01T12:51:37.697Z,16.40
2018-05-01T12:54:05.814Z,16.90
2018-05-01T12:56:33.926Z,16.80
2018-05-01T12:59:02.040Z,16.90
2018-05-01T13:01:30.935Z,16.40
2018-05-01T13:03:59.029Z,16.40
2018-05-01T13:06:27.890Z,16.20
2018-05-01T13:08:55.981Z,16.20
2018-05-01T13:11:24.150Z,15.90
2018-05-01T13:13:52.210Z,15.60
2018-05-01T13:16:20.327Z,16.20
2018-05-01T13:18:48.416Z,16.20
2018-05-01T13:21:16.509Z,15.70
2018-05-01T13:23:44.615Z,16.10
2018-05-01T13:26:12.755Z,16.60
2018-05-01T13:28:40.846Z,16.20
2018-05-01T13:31:08.963Z,15.70
2018-05-01T13:33:37.076Z,15.50
2018-05-01T13:36:05.171Z,15.80
2018-05-01T13:38:33.265Z,15.80
2018-05-01T13:41:01.352Z,16.40
2018-05-01T13:43:29.471Z,15.80
2018-05-01T13:45:57.584Z,15.10
2018-05-01T13:48:26.439Z,16.20
2018-05-01T13:50:54.532Z,16.20
2018-05-01T13:53:22.647Z,17.10
2018-05-01T13:55:50.767Z,18.00
2018-05-01T13:58:20.008Z,18.00
2018-05-01T14:00:48.088Z,17.90
2018-05-01T14:03:16.187Z,18.90
2018-05-01T14:05:44.283Z,18.30
2018-05-01T14:08:12.359Z,18.10
2018-05-01T14:10:40.455Z,19.00
2018-05-01T14:13:08.584Z,18.90
2018-05-01T14:15:36.685Z,18.60
2018-05-01T14:18:04.815Z,18.30
2018-05-01T14:20:32.901Z,18.00
2018-05-01T14:23:00.993Z,18.40
2018-05-01T14:25:29.188Z,18.10
2018-05-01T14:27:57.194Z,17.60
2018-05-01T14:30:25.346Z,16.80
2018-05-01T14:32:53.420Z,17.70
2018-05-01T14:35:21.573Z,18.20
2018-05-01T14:37:49.653Z,17.70
2018-05-01T14:40:18.226Z,17.40
2018-05-01T14:42:46.327Z,18.20
2018-05-01T14:45:14.388Z,17.40
2018-05-01T14:47:43.643Z,17.00
2018-05-01T14:50:11.740Z,16.90
2018-05-01T14:52:39.889Z,16.00
2018-05-01T14:55:08.011Z,15.70
2018-05-01T14:57:36.145Z,15.50
2018-05-01T15:00:04.651Z,15.40
2018-05-01T15:02:34.631Z,15.80
2018-05-01T15:05:02.751Z,15.40
2018-05-01T15:07:31.624Z,15.50
2018-05-01T15:09:59.682Z,15.50
2018-05-01T15:12:27.797Z,14.80
2018-05-01T15:14:55.888Z,14.80
2018-05-01T15:17:24.739Z,14.20
2018-05-01T15:19:52.867Z,14.20
2018-05-01T15:22:21.050Z,13.70
2018-05-01T15:24:49.127Z,13.50
2018-05-01T15:27:17.213Z,13.40
2018-05-01T15:29:45.316Z,13.40
2018-05-01T15:32:13.425Z,13.30
2018-05-01T15:34:41.552Z,13.30
2018-05-01T15:37:09.657Z,13.30
2018-05-01T15:39:37.767Z,13.10
2018-05-01T15:42:06.647Z,13.00
2018-05-01T15:44:34.796Z,13.00
2018-05-01T15:47:02.883Z,13.10
2018-05-01T15:49:30.958Z,13.00
2018-05-01T15:51:59.059Z,13.00
2018-05-01T15:54:27.153Z,12.90
2018-05-01T15:56:55.297Z,12.90
2018-05-01T15:59:23.390Z,12.80
2018-05-01T16:01:51.572Z,12.80
2018-05-01T16:04:19.717Z,12.90
2018-05-01T16:06:47.805Z,12.90
2018-05-01T16:09:15.920Z,12.80
2018-05-01T16:11:44.042Z,12.60
2018-05-01T16:14:12.201Z,12.50
2018-05-01T16:16:40.247Z,12.30
2018-05-01T16:19:08.361Z,12.20
2018-05-01T16:21:37.190Z,12.40
2018-05-01T16:24:05.351Z,12.40
2018-05-01T16:26:33.469Z,12.50
2018-05-01T16:29:01.548Z,12.40
2018-05-01T16:31:29.639Z,12.30
2018-05-01T16:33:58.050Z,12.20
2018-05-01T16:36:26.594Z,12.10
2018-05-01T16:38:54.773Z,12.00
2018-05-01T16:41:22.875Z,12.00
2018-05-01T16:43:50.980Z,11.90
2018-05-01T16:46:19.086Z,11.90
2018-05-01T16:48:47.187Z,11.80
2018-05-01T16:51:16.779Z,11.80
2018-05-01T16:53:44.910Z,11.80
2018-05-01T16:56:13.780Z,11.80
2018-05-01T16:58:41.881Z,11.70
2018-05-01T17:01:09.955Z,11.70
2018-05-01T17:03:38.063Z,11.70
2018-05-01T17:06:06.167Z,11.60
2018-05-01T17:08:35.064Z,11.50
2018-05-01T17:11:03.918Z,11.50
2018-05-01T17:13:31.999Z,11.50
2018-05-01T17:16:00.077Z,11.50
2018-05-01T17:18:28.177Z,11.40
2018-05-01T17:20:56.300Z,11.40
2018-05-01T17:23:25.191Z,11.40
2018-05-01T17:25:53.333Z,11.40
2018-05-01T17:28:21.475Z,11.40
2018-05-01T17:30:50.339Z,11.40
2018-05-01T17:33:18.466Z,11.40
2018-05-01T17:35:47.319Z,11.50
2018-05-01T17:38:15.445Z,11.50
2018-05-01T17:40:43.556Z,11.60
2018-05-01T17:43:12.031Z,11.60
2018-05-01T17:45:40.212Z,11.60
2018-05-01T17:48:08.308Z,11.50
2018-05-01T17:50:37.258Z,11.40
2018-05-01T17:53:05.348Z,11.30
2018-05-01T17:55:33.509Z,11.30
2018-05-01T17:58:01.597Z,11.10
2018-05-01T18:00:29.695Z,11.00
2018-05-01T18:02:57.845Z,10.90
2018-05-01T18:05:26.711Z,10.60
2018-05-01T18:07:54.831Z,10.60
2018-05-01T18:10:22.987Z,10.60
2018-05-01T18:12:51.067Z,10.40
2018-05-01T18:15:19.225Z,10.40
2018-05-01T18:17:47.315Z,10.30
2018-05-01T18:20:15.480Z,10.20
2018-05-01T18:22:43.585Z,10.10
2018-05-01T18:25:11.679Z,10.10
2018-05-01T18:27:39.763Z,9.90
2018-05-01T18:30:07.875Z,9.80
2018-05-01T18:32:36.766Z,9.50
2018-05-01T18:35:04.862Z,9.50
2018-05-01T18:37:32.960Z,9.40
2018-05-01T18:40:01.847Z,9.10
2018-05-01T18:42:29.923Z,9.10
2018-05-01T18:44:58.016Z,9.00
2018-05-01T18:47:26.107Z,8.80
2018-05-01T18:49:54.984Z,8.70
2018-05-01T18:52:23.089Z,8.70
2018-05-01T18:54:51.223Z,8.70
2018-05-01T18:57:19.321Z,8.60
2018-05-01T18:59:47.419Z,8.50
2018-05-01T19:02:15.511Z,8.30
2018-05-01T19:04:43.651Z,8.30
2018-05-01T19:07:11.689Z,8.30
2018-05-01T19:09:39.803Z,8.30
2018-05-01T19:12:08.665Z,8.20
2018-05-01T19:14:36.797Z,8.10
2018-05-01T19:17:04.898Z,8.00
2018-05-01T19:19:33.015Z,8.00
2018-05-01T19:22:01.112Z,8.00
2018-05-01T19:24:29.213Z,7.90
2018-05-01T19:26:57.296Z,7.80
2018-05-01T19:29:25.399Z,7.70
2018-05-01T19:31:54.306Z,7.30
2018-05-01T19:34:23.191Z,7.20
2018-05-01T19:36:51.269Z,7.20
2018-05-01T19:39:19.348Z,7.10
2018-05-01T19:41:48.267Z,6.90
2018-05-01T19:44:16.323Z,6.90
2018-05-01T19:46:44.411Z,6.90
2018-05-01T19:49:12.509Z,6.80
2018-05-01T19:51:40.593Z,6.80
2018-05-01T19:54:09.008Z,6.70
2018-05-01T19:56:37.178Z,6.70
2018-05-01T19:59:05.274Z,6.60
2018-05-01T20:01:33.394Z,6.60
2018-05-01T20:04:01.482Z,6.50
2018-05-01T20:06:29.588Z,6.50
2018-05-01T20:08:57.752Z,6.50
2018-05-01T20:11:25.831Z,6.40
2018-05-01T20:13:53.960Z,6.50
2018-05-01T20:16:22.805Z,6.40
2018-05-01T20:18:50.876Z,6.40
2018-05-01T20:21:19.769Z,6.10
2018-05-01T20:23:47.869Z,6.10
2018-05-01T20:26:16.002Z,6.00
2018-05-01T20:28:44.094Z,5.90
2018-05-01T20:31:12.191Z,5.80
2018-05-01T20:33:40.325Z,5.70
2018-05-01T20:36:08.455Z,5.70
2018-05-01T20:38:36.539Z,5.60
2018-05-01T20:41:04.680Z,5.50
2018-05-01T20:43:32.759Z,5.40
2018-05-01T20:46:00.863Z,5.30
2018-05-01T20:48:28.985Z,5.20
2018-05-01T20:50:57.086Z,5.20
2018-05-01T20:53:25.166Z,5.10
2018-05-01T20:55:53.271Z,5.10
2018-05-01T20:58:22.142Z,5.00
2018-05-01T21:00:50.227Z,5.00
2018-05-01T21:03:18.320Z,5.10
2018-05-01T21:05:47.201Z,5.30
2018-05-01T21:08:15.329Z,5.30
2018-05-01T21:10:44.197Z,5.20
2018-05-01T21:13:12.304Z,5.20
2018-05-01T21:15:41.217Z,5.30
2018-05-01T21:18:09.353Z,5.30
2018-05-01T21:20:37.594Z,5.30
2018-05-01T21:23:05.701Z,5.20
2018-05-01T21:25:33.803Z,5.10
2018-05-01T21:28:01.897Z,5.00
2018-05-01T21:30:30.044Z,5.00
2018-05-01T21:32:58.198Z,5.30
2018-05-01T21:35:26.281Z,5.10
2018-05-01T21:37:54.377Z,5.00
2018-05-01T21:40:22.460Z,4.80
2018-05-01T21:42:50.561Z,4.70
2018-05-01T21:45:19.402Z,4.70
2018-05-01T21:47:47.512Z,4.70
2018-05-01T21:50:15.604Z,4.60
2018-05-01T21:52:43.701Z,4.60
2018-05-01T21:55:11.823Z,4.50
2018-05-01T21:57:39.959Z,4.40
2018-05-01T22:00:08.041Z,4.30
2018-05-01T22:02:36.222Z,4.20
2018-05-01T22:05:04.345Z,4.20
2018-05-01T22:07:33.249Z,4.20
2018-05-01T22:10:02.137Z,4.10
2018-05-01T22:12:31.066Z,4.20
2018-05-01T22:14:59.959Z,4.20
2018-05-01T22:17:28.891Z,4.20
2018-05-01T22:19:56.943Z,4.20
2018-05-01T22:22:25.822Z,4.10
2018-05-01T22:24:53.892Z,4.10
2018-05-01T22:27:22.005Z,3.90
2018-05-01T22:29:50.078Z,3.90
2018-05-01T22:32:18.199Z,3.80
2018-05-01T22:34:46.280Z,4.10
2018-05-01T22:37:15.133Z,4.00
2018-05-01T22:39:43.252Z,4.00
2018-05-01T22:42:12.123Z,3.90
2018-05-01T22:44:40.244Z,3.90
